createdAt,value
2023-01-09T00:01:29.160Z,5.60
2023-01-09T00:03:56.247Z,4.78
2023-01-09T00:06:23.216Z,4.70
2023-01-09T00:08:50.134Z,6.00
2023-01-09T00:11:17.187Z,4.90
2023-01-09T00:13:44.394Z,5.00
2023-01-09T00:16:11.462Z,4.88
2023-01-09T00:18:38.911Z,4.78
2023-01-09T00:21:08.852Z,4.90
2023-01-09T00:23:36.232Z,5.25
2023-01-09T00:26:24.765Z,6.53
2023-01-09T00:28:52.744Z,7.03
2023-01-09T00:31:20.672Z,6.07
2023-01-09T00:34:01.346Z,4.88
2023-01-09T00:36:28.726Z,5.40
2023-01-09T00:38:55.768Z,5.38
2023-01-09T00:41:45.626Z,5.53
2023-01-09T00:44:22.475Z,6.40
2023-01-09T00:46:54.666Z,5.57
2023-01-09T00:49:22.394Z,5.30
2023-01-09T00:51:49.643Z,5.22
2023-01-09T00:54:19.676Z,5.47
2023-01-09T00:56:46.991Z,5.82
2023-01-09T00:59:14.029Z,7.07
2023-01-09T01:01:41.392Z,6.80
2023-01-09T01:04:26.825Z,5.95
2023-01-09T01:07:12.441Z,5.15
2023-01-09T01:09:39.467Z,5.63
2023-01-09T01:12:07.418Z,5.93
2023-01-09T01:14:38.694Z,4.80
2023-01-09T01:17:07.004Z,5.35
2023-01-09T01:19:35.240Z,5.78
2023-01-09T01:22:02.811Z,5.68
2023-01-09T01:24:29.771Z,5.22
2023-01-09T01:26:56.723Z,5.70
2023-01-09T01:29:23.681Z,5.70
2023-01-09T01:31:52.304Z,6.25
2023-01-09T01:34:19.255Z,5.28
2023-01-09T01:36:46.225Z,6.10
2023-01-09T01:39:13.239Z,5.22
2023-01-09T01:41:40.341Z,5.88
2023-01-09T01:44:45.831Z,4.65
2023-01-09T01:47:53.464Z,4.78
2023-01-09T01:50:23.734Z,5.47
2023-01-09T01:53:04.231Z,4.45
2023-01-09T01:55:32.297Z,5.00
2023-01-09T01:58:04.201Z,4.82
2023-01-09T02:00:38.249Z,4.72
2023-01-09T02:03:07.569Z,4.03
2023-01-09T02:05:36.580Z,4.63
2023-01-09T02:08:04.341Z,5.03
2023-01-09T02:10:32.248Z,4.72
2023-01-09T02:13:00.912Z,4.65
2023-01-09T02:15:30.140Z,4.45
2023-01-09T02:18:03.222Z,4.88
2023-01-09T02:20:56.445Z,4.50
2023-01-09T02:23:26.369Z,4.38
2023-01-09T02:26:12.914Z,4.45
2023-01-09T02:29:07.873Z,5.13
2023-01-09T02:31:51.684Z,4.57
2023-01-09T02:34:33.026Z,4.07
2023-01-09T02:37:10.858Z,5.03
2023-01-09T02:39:47.794Z,4.63
2023-01-09T02:42:20.252Z,5.30
2023-01-09T02:44:47.486Z,4.60
2023-01-09T02:47:17.145Z,4.03
2023-01-09T02:49:49.448Z,4.07
2023-01-09T02:52:47.794Z,5.00
2023-01-09T02:55:51.200Z,9.70
2023-01-09T02:58:24.043Z,7.65
2023-01-09T03:01:06.519Z,5.65
2023-01-09T03:03:46.189Z,7.30
2023-01-09T03:06:31.068Z,6.45
2023-01-09T03:09:06.403Z,5.45
2023-01-09T03:11:40.372Z,6.75
2023-01-09T03:14:16.157Z,5.22
2023-01-09T03:16:47.062Z,5.35
2023-01-09T03:19:20.909Z,5.50
2023-01-09T03:21:48.811Z,4.95
2023-01-09T03:24:15.795Z,4.90
2023-01-09T03:26:43.209Z,5.22
2023-01-09T03:29:10.668Z,5.55
2023-01-09T03:31:37.715Z,4.55
2023-01-09T03:34:04.739Z,4.65
2023-01-09T03:36:31.704Z,4.13
2023-01-09T03:38:58.628Z,5.05
2023-01-09T03:41:25.677Z,4.80
2023-01-09T03:43:52.609Z,4.22
2023-01-09T03:46:19.522Z,4.30
2023-01-09T03:48:46.485Z,5.45
2023-01-09T03:51:13.419Z,4.82
2023-01-09T03:53:40.428Z,4.82
2023-01-09T03:56:07.783Z,5.80
2023-01-09T03:58:34.717Z,4.78
2023-01-09T04:01:03.988Z,5.78
2023-01-09T04:03:31.387Z,5.22
2023-01-09T04:05:58.425Z,4.88
2023-01-09T04:08:25.388Z,5.38
2023-01-09T04:10:52.603Z,4.95
2023-01-09T04:13:19.864Z,4.65
2023-01-09T04:15:46.867Z,5.60
2023-01-09T04:18:14.731Z,5.82
2023-01-09T04:20:42.420Z,5.15
2023-01-09T04:23:09.417Z,4.53
2023-01-09T04:25:36.467Z,4.32
2023-01-09T04:28:03.734Z,4.20
2023-01-09T04:30:30.734Z,4.28
2023-01-09T04:32:57.730Z,4.30
2023-01-09T04:35:24.821Z,4.50
2023-01-09T04:37:51.851Z,3.85
2023-01-09T04:40:19.560Z,4.53
2023-01-09T04:42:46.568Z,4.60
2023-01-09T04:45:15.659Z,4.25
2023-01-09T04:47:42.939Z,3.95
2023-01-09T04:50:11.511Z,4.32
2023-01-09T04:52:39.188Z,3.75
2023-01-09T04:55:07.706Z,3.85
2023-01-09T04:57:35.537Z,3.85
2023-01-09T05:00:03.679Z,3.95
2023-01-09T05:02:30.687Z,4.45
2023-01-09T05:04:57.675Z,4.03
2023-01-09T05:07:24.660Z,4.80
2023-01-09T05:09:51.618Z,4.53
2023-01-09T05:12:18.549Z,4.03
2023-01-09T05:14:45.554Z,3.63
2023-01-09T05:17:12.602Z,3.90
2023-01-09T05:19:39.545Z,3.63
2023-01-09T05:22:06.728Z,4.18
2023-01-09T05:24:33.695Z,3.67
2023-01-09T05:27:02.710Z,3.72
2023-01-09T05:29:29.848Z,2.83
2023-01-09T05:31:56.955Z,3.42
2023-01-09T05:34:24.152Z,3.25
2023-01-09T05:36:51.439Z,3.60
2023-01-09T05:39:18.524Z,3.00
2023-01-09T05:41:45.474Z,3.67
2023-01-09T05:44:12.437Z,2.70
2023-01-09T05:46:39.449Z,3.60
2023-01-09T05:49:06.404Z,4.25
2023-01-09T05:51:33.435Z,3.38
2023-01-09T05:54:00.497Z,3.60
2023-01-09T05:56:27.496Z,3.00
2023-01-09T05:58:54.442Z,3.40
2023-01-09T06:01:23.634Z,3.28
2023-01-09T06:03:50.934Z,3.10
2023-01-09T06:06:17.906Z,3.05
2023-01-09T06:08:44.876Z,3.00
2023-01-09T06:11:11.815Z,2.80
2023-01-09T06:13:38.858Z,3.15
2023-01-09T06:16:06.669Z,2.50
2023-01-09T06:18:33.702Z,2.72
2023-01-09T06:21:00.671Z,2.10
2023-01-09T06:23:27.645Z,2.25
2023-01-09T06:25:54.632Z,1.90
2023-01-09T06:28:21.569Z,2.28
2023-01-09T06:30:52.754Z,3.70
2023-01-09T06:33:20.343Z,4.53
2023-01-09T06:35:47.351Z,4.18
2023-01-09T06:38:14.322Z,6.25
2023-01-09T06:40:41.312Z,5.57
2023-01-09T06:43:08.385Z,4.45
2023-01-09T06:45:35.380Z,5.88
2023-01-09T06:48:02.319Z,5.70
2023-01-09T06:50:29.327Z,5.00
2023-01-09T06:52:56.322Z,5.07
2023-01-09T06:55:23.343Z,5.18
2023-01-09T06:57:50.303Z,5.40
2023-01-09T07:00:17.682Z,4.75
2023-01-09T07:02:44.699Z,4.57
2023-01-09T07:05:12.110Z,4.15
2023-01-09T07:07:40.376Z,5.13
2023-01-09T07:10:08.864Z,3.70
2023-01-09T07:12:36.069Z,3.83
2023-01-09T07:15:03.279Z,4.65
2023-01-09T07:17:30.371Z,4.82
2023-01-09T07:19:57.317Z,5.43
2023-01-09T07:22:24.284Z,4.97
2023-01-09T07:24:51.212Z,4.50
2023-01-09T07:27:18.160Z,6.93
2023-01-09T07:29:45.154Z,8.55
2023-01-09T07:32:12.103Z,7.10
2023-01-09T07:34:39.298Z,6.10
2023-01-09T07:37:06.223Z,8.40
2023-01-09T07:39:33.171Z,5.88
2023-01-09T07:42:00.122Z,4.55
2023-01-09T07:44:27.071Z,6.80
2023-01-09T07:46:54.080Z,6.35
2023-01-09T07:49:21.091Z,7.00
2023-01-09T07:51:48.387Z,6.63
2023-01-09T07:54:15.391Z,7.40
2023-01-09T07:56:42.398Z,6.90
2023-01-09T07:59:09.436Z,5.85
2023-01-09T08:01:36.457Z,7.00
2023-01-09T08:04:04.292Z,7.45
2023-01-09T08:06:31.960Z,7.28
2023-01-09T08:08:59.329Z,7.05
2023-01-09T08:11:26.591Z,7.00
2023-01-09T08:13:53.648Z,8.38
2023-01-09T08:16:20.707Z,7.90
2023-01-09T08:18:47.678Z,6.90
2023-01-09T08:21:14.814Z,7.03
2023-01-09T08:23:41.837Z,7.97
2023-01-09T08:26:08.850Z,6.78
2023-01-09T08:28:35.822Z,7.60
2023-01-09T08:31:03.060Z,7.32
2023-01-09T08:33:30.049Z,10.30
2023-01-09T08:35:57.160Z,9.18
2023-01-09T08:38:24.235Z,8.20
2023-01-09T08:40:51.191Z,8.38
2023-01-09T08:43:36.474Z,8.25
2023-01-09T08:46:22.349Z,10.40
2023-01-09T08:48:49.357Z,10.35
2023-01-09T08:51:16.392Z,10.75
2023-01-09T08:53:43.363Z,10.70
2023-01-09T08:56:10.465Z,9.88
2023-01-09T08:58:37.555Z,11.35
2023-01-09T09:01:07.926Z,11.60
2023-01-09T09:03:35.021Z,12.60
2023-01-09T09:06:02.020Z,12.52
2023-01-09T09:08:28.966Z,11.13
2023-01-09T09:10:57.403Z,11.82
2023-01-09T09:13:24.394Z,13.27
2023-01-09T09:15:51.459Z,13.13
2023-01-09T09:18:18.446Z,11.68
2023-01-09T09:20:45.506Z,11.50
2023-01-09T09:23:12.559Z,9.90
2023-01-09T09:25:39.598Z,10.20
2023-01-09T09:28:07.335Z,9.88
2023-01-09T09:30:34.857Z,9.32
2023-01-09T09:33:04.756Z,9.10
2023-01-09T09:35:33.811Z,9.02
2023-01-09T09:38:05.029Z,10.40
2023-01-09T09:41:29.894Z,10.20
2023-01-09T09:44:43.685Z,9.52
2023-01-09T09:47:46.787Z,10.90
2023-01-09T09:50:28.753Z,10.40
2023-01-09T09:53:20.345Z,9.63
2023-01-09T09:55:49.751Z,11.73
2023-01-09T09:58:22.360Z,12.07
2023-01-09T10:00:53.420Z,13.07
2023-01-09T10:03:40.135Z,13.23
2023-01-09T10:06:36.754Z,14.38
2023-01-09T10:09:15.222Z,12.77
2023-01-09T10:12:04.113Z,13.45
2023-01-09T10:14:31.807Z,12.73
2023-01-09T10:17:22.661Z,13.18
2023-01-09T10:20:23.215Z,12.00
2023-01-09T10:22:56.254Z,13.57
2023-01-09T10:25:30.099Z,13.82
2023-01-09T10:28:05.707Z,13.98
2023-01-09T10:30:48.305Z,12.35
2023-01-09T10:33:33.550Z,12.63
2023-01-09T10:36:15.605Z,11.68
2023-01-09T10:38:47.640Z,12.38
2023-01-09T10:41:44.297Z,11.45
2023-01-09T10:44:38.740Z,11.50
2023-01-09T10:47:18.504Z,11.27
2023-01-09T10:49:47.880Z,10.82
2023-01-09T10:52:18.363Z,10.38
2023-01-09T10:55:14.946Z,11.18
2023-01-09T10:57:44.611Z,10.52
2023-01-09T11:00:16.888Z,10.13
2023-01-09T11:02:44.159Z,10.40
2023-01-09T11:05:19.192Z,10.02
2023-01-09T11:07:51.172Z,10.65
2023-01-09T11:10:19.569Z,9.40
2023-01-09T11:12:47.695Z,10.88
2023-01-09T11:15:28.855Z,11.60
2023-01-09T11:18:17.604Z,10.00
2023-01-09T11:20:44.679Z,10.02
2023-01-09T11:23:25.611Z,9.73
2023-01-09T11:25:55.083Z,12.05
2023-01-09T11:28:22.146Z,11.10
2023-01-09T11:31:00.201Z,9.20
2023-01-09T11:33:38.691Z,8.18
2023-01-09T11:36:15.055Z,10.57
2023-01-09T11:38:49.782Z,13.80
2023-01-09T11:41:22.943Z,13.20
2023-01-09T11:43:55.778Z,11.38
2023-01-09T11:46:44.036Z,9.80
2023-01-09T11:49:25.347Z,11.77
2023-01-09T11:52:04.834Z,11.95
2023-01-09T11:54:37.924Z,9.48
2023-01-09T11:57:04.956Z,10.43
2023-01-09T11:59:32.149Z,11.45
2023-01-09T12:02:10.771Z,11.50
2023-01-09T12:04:50.726Z,9.55
2023-01-09T12:07:31.692Z,10.10
2023-01-09T12:10:20.108Z,9.65
2023-01-09T12:13:12.991Z,8.77
2023-01-09T12:16:32.984Z,8.35
2023-01-09T12:19:17.939Z,10.27
2023-01-09T12:22:02.481Z,8.88
2023-01-09T12:25:06.477Z,8.43
2023-01-09T12:28:14.942Z,7.97
2023-01-09T12:30:45.181Z,8.15
2023-01-09T12:33:26.939Z,9.13
2023-01-09T12:36:14.168Z,11.35
2023-01-09T12:38:49.019Z,10.35
2023-01-09T12:41:42.931Z,10.98
2023-01-09T12:44:34.916Z,11.23
2023-01-09T12:47:40.581Z,9.43
2023-01-09T12:50:19.873Z,9.40
2023-01-09T12:52:52.554Z,8.18
2023-01-09T12:55:23.900Z,8.93
2023-01-09T12:57:54.969Z,8.20
2023-01-09T13:00:50.506Z,6.88
2023-01-09T13:03:32.918Z,9.00
2023-01-09T13:06:01.600Z,10.75
2023-01-09T13:08:44.904Z,10.02
2023-01-09T13:12:08.782Z,11.40
2023-01-09T13:15:01.991Z,11.65
2023-01-09T13:17:40.652Z,11.00
2023-01-09T13:20:44.216Z,11.15
2023-01-09T13:23:56.439Z,10.77
2023-01-09T13:26:29.617Z,9.65
2023-01-09T13:29:03.207Z,10.68
2023-01-09T13:31:43.589Z,11.05
2023-01-09T13:34:21.779Z,11.35
2023-01-09T13:36:52.438Z,10.70
2023-01-09T13:39:32.382Z,11.10
2023-01-09T13:42:37.915Z,10.80
2023-01-09T13:45:25.925Z,10.10
2023-01-09T13:48:25.423Z,9.68
2023-01-09T13:50:53.853Z,9.68
2023-01-09T13:53:25.124Z,9.27
2023-01-09T13:55:58.638Z,10.80
2023-01-09T13:58:28.189Z,12.07
2023-01-09T14:00:58.829Z,10.77
2023-01-09T14:03:38.068Z,13.67
2023-01-09T14:06:12.080Z,10.48
2023-01-09T14:08:41.911Z,10.38
2023-01-09T14:11:10.128Z,7.63
2023-01-09T14:13:45.338Z,7.13
2023-01-09T14:16:20.659Z,8.27
2023-01-09T14:19:00.897Z,9.32
2023-01-09T14:21:48.197Z,6.35
2023-01-09T14:24:28.452Z,5.18
2023-01-09T14:27:00.637Z,4.80
2023-01-09T14:29:38.329Z,4.30
2023-01-09T14:32:31.907Z,4.18
2023-01-09T14:35:17.546Z,3.88
2023-01-09T14:37:50.229Z,4.18
2023-01-09T14:40:23.829Z,3.70
2023-01-09T14:42:55.543Z,4.38
2023-01-09T14:45:27.080Z,3.60
2023-01-09T14:50:47.853Z,7.10
2023-01-09T14:53:25.623Z,3.60
2023-01-09T14:56:06.615Z,3.75
2023-01-09T14:58:35.659Z,5.10
2023-01-09T15:01:02.674Z,6.13
2023-01-09T15:03:54.172Z,4.97
2023-01-09T15:06:28.047Z,3.50
2023-01-09T15:09:06.754Z,4.45
2023-01-09T15:11:36.952Z,7.55
2023-01-09T15:14:05.478Z,16.70
2023-01-09T15:16:33.222Z,5.88
2023-01-09T15:19:02.707Z,5.10
2023-01-09T15:21:31.488Z,3.35
2023-01-09T15:24:28.778Z,3.42
2023-01-09T15:27:01.308Z,2.65
2023-01-09T15:29:28.881Z,3.25
2023-01-09T15:32:07.351Z,4.97
2023-01-09T15:34:34.863Z,3.88
2023-01-09T15:37:03.202Z,7.63
2023-01-09T15:39:37.427Z,8.00
2023-01-09T15:42:23.365Z,5.78
2023-01-09T15:44:53.945Z,3.50
2023-01-09T15:47:27.848Z,3.33
2023-01-09T15:49:56.928Z,2.60
2023-01-09T15:52:24.253Z,1.98
2023-01-09T15:54:51.730Z,0.47
2023-01-09T15:57:30.873Z,3.13
2023-01-09T16:00:18.394Z,2.35
2023-01-09T16:03:12.358Z,1.13
2023-01-09T16:05:50.242Z,7.85
2023-01-09T16:08:27.122Z,3.00
2023-01-09T16:11:01.652Z,0.60
2023-01-09T16:13:31.729Z,0.60
2023-01-09T16:16:01.295Z,0.40
2023-01-09T16:18:35.176Z,0.30
2023-01-09T16:21:12.027Z,0.30
2023-01-09T16:23:39.003Z,0.30
2023-01-09T16:26:13.940Z,0.50
2023-01-09T16:28:42.453Z,0.43
2023-01-09T16:31:26.726Z,0.30
2023-01-09T16:34:05.913Z,0.20
2023-01-09T16:36:36.265Z,0.40
2023-01-09T16:39:06.505Z,0.30
2023-01-09T16:44:11.172Z,0.73
2023-01-09T16:46:44.060Z,0.30
2023-01-09T16:49:28.608Z,0.30
2023-01-09T16:52:06.429Z,0.30
2023-01-09T16:54:39.591Z,0.30
2023-01-09T16:57:14.033Z,0.35
2023-01-09T16:59:48.444Z,0.30
2023-01-09T17:02:29.805Z,0.30
2023-01-09T17:05:05.777Z,0.30
2023-01-09T17:07:38.041Z,0.17
2023-01-09T17:10:21.508Z,0.30
2023-01-09T17:12:58.452Z,0.70
2023-01-09T17:15:27.667Z,0.35
2023-01-09T17:18:10.187Z,0.40
2023-01-09T17:20:47.634Z,0.65
2023-01-09T17:23:31.827Z,0.22
2023-01-09T17:26:25.414Z,0.20
2023-01-09T17:28:54.011Z,0.20
2023-01-09T17:31:29.336Z,0.20
2023-01-09T17:33:58.322Z,0.20
2023-01-09T17:36:27.013Z,0.20
2023-01-09T17:39:00.686Z,0.20
2023-01-09T17:41:32.343Z,0.30
2023-01-09T17:44:03.378Z,0.20
2023-01-09T17:46:39.674Z,0.30
2023-01-09T17:49:13.451Z,0.30
2023-01-09T17:51:46.636Z,0.30
2023-01-09T17:54:15.228Z,0.20
2023-01-09T17:56:51.198Z,0.30
2023-01-09T17:59:22.898Z,0.43
2023-01-09T18:01:56.832Z,0.40
2023-01-09T18:04:27.523Z,0.38
2023-01-09T18:07:05.274Z,0.40
2023-01-09T18:09:38.397Z,0.70
2023-01-09T18:12:12.163Z,0.50
2023-01-09T18:14:42.821Z,0.30
2023-01-09T18:17:13.593Z,0.80
2023-01-09T18:19:47.135Z,0.47
2023-01-09T18:22:19.653Z,0.38
2023-01-09T18:24:48.090Z,0.45
2023-01-09T18:27:21.866Z,53.28
2023-01-09T18:30:04.999Z,54.88
2023-01-09T18:32:41.184Z,23.73
2023-01-09T18:35:14.842Z,11.00
2023-01-09T18:37:46.338Z,9.90
2023-01-09T18:40:25.264Z,8.25
2023-01-09T18:42:59.132Z,1.50
2023-01-09T18:45:34.131Z,0.90
2023-01-09T18:48:06.329Z,0.40
2023-01-09T18:50:41.378Z,0.60
2023-01-09T18:53:13.628Z,1.90
2023-01-09T18:55:45.781Z,0.35
2023-01-09T18:58:17.755Z,1.30
2023-01-09T19:00:59.956Z,3.13
2023-01-09T19:03:32.518Z,12.80
2023-01-09T19:06:06.769Z,12.18
2023-01-09T19:08:37.455Z,15.35
2023-01-09T19:11:08.143Z,5.25
2023-01-09T19:13:46.655Z,8.75
2023-01-09T19:16:17.988Z,1.88
2023-01-09T19:18:57.720Z,25.30
2023-01-09T19:21:33.324Z,13.18
2023-01-09T19:24:10.432Z,14.52
2023-01-09T19:26:46.697Z,1.13
2023-01-09T19:29:22.538Z,11.60
2023-01-09T19:31:55.357Z,2.00
2023-01-09T19:34:26.006Z,3.63
2023-01-09T19:37:02.405Z,6.78
2023-01-09T19:39:45.800Z,5.72
2023-01-09T19:42:31.361Z,7.78
2023-01-09T19:45:01.808Z,7.85
2023-01-09T19:47:36.304Z,1.70
2023-01-09T19:50:17.536Z,4.20
2023-01-09T19:52:49.854Z,2.75
2023-01-09T19:55:20.280Z,5.03
2023-01-09T19:57:57.021Z,2.17
2023-01-09T20:00:30.564Z,2.10
2023-01-09T20:16:35.588Z,3.63
2023-01-09T20:19:13.651Z,1.38
2023-01-09T20:21:49.621Z,2.10
2023-01-09T20:24:20.640Z,7.20
2023-01-09T20:26:51.239Z,3.15
2023-01-09T20:29:26.504Z,2.27
2023-01-09T20:31:59.669Z,4.18
2023-01-09T20:34:29.269Z,2.78
2023-01-09T20:37:01.201Z,4.07
2023-01-09T20:39:32.121Z,3.15
2023-01-09T20:42:07.870Z,4.00
2023-01-09T20:44:38.978Z,5.28
2023-01-09T20:47:08.413Z,3.75
2023-01-09T20:49:49.005Z,4.10
2023-01-09T20:52:22.029Z,4.20
2023-01-09T20:54:50.125Z,3.10
2023-01-09T21:00:34.124Z,5.78
2023-01-09T21:03:05.064Z,6.38
2023-01-09T21:05:47.361Z,3.00
2023-01-09T21:08:28.309Z,1.65
2023-01-09T21:10:59.668Z,2.50
2023-01-09T21:13:46.222Z,4.00
2023-01-09T21:16:25.950Z,3.40
2023-01-09T21:18:55.322Z,4.05
2023-01-09T21:21:27.874Z,5.10
2023-01-09T21:24:00.832Z,5.75
2023-01-09T21:26:31.080Z,4.95
2023-01-09T21:29:03.488Z,5.38
2023-01-09T21:31:35.692Z,6.80
2023-01-09T21:34:09.636Z,6.43
2023-01-09T21:36:37.944Z,5.88
2023-01-09T21:39:08.404Z,10.60
2023-01-09T21:42:02.260Z,5.97
2023-01-09T21:44:53.545Z,9.30
2023-01-09T21:47:21.513Z,12.93
2023-01-09T21:49:49.713Z,6.47
2023-01-09T21:52:18.786Z,3.40
2023-01-09T21:54:53.164Z,3.38
2023-01-09T21:57:21.161Z,3.25
2023-01-09T21:59:51.956Z,9.18
2023-01-09T22:02:19.859Z,16.02
2023-01-09T22:04:53.163Z,8.15
2023-01-09T22:07:21.031Z,6.68
2023-01-09T22:09:48.905Z,10.85
2023-01-09T22:12:19.585Z,7.15
2023-01-09T22:14:53.336Z,7.47
2023-01-09T22:19:49.266Z,8.07
2023-01-09T22:22:22.328Z,2.72
2023-01-09T22:24:53.666Z,3.40
2023-01-09T22:27:24.098Z,3.25
2023-01-09T22:29:55.563Z,4.80
2023-01-09T22:32:31.169Z,6.75
2023-01-09T22:35:04.239Z,5.97
2023-01-09T22:37:32.085Z,8.20
2023-01-09T22:40:06.983Z,10.95
2023-01-09T22:42:35.290Z,7.68
2023-01-09T22:47:58.080Z,7.18
2023-01-09T22:50:26.038Z,6.68
2023-01-09T22:52:59.823Z,10.10
2023-01-09T22:55:30.403Z,6.10
2023-01-09T22:58:00.830Z,4.18
2023-01-09T23:00:33.140Z,3.42
2023-01-09T23:03:03.803Z,2.58
2023-01-09T23:05:33.712Z,3.03
2023-01-09T23:08:01.604Z,2.72
2023-01-09T23:10:29.322Z,2.42
2023-01-09T23:13:02.023Z,5.10
2023-01-09T23:15:36.738Z,2.30
2023-01-09T23:18:04.808Z,4.35
2023-01-09T23:20:33.950Z,4.80
2023-01-09T23:23:19.436Z,11.30
2023-01-09T23:26:13.471Z,5.32
2023-01-09T23:28:55.364Z,11.35
2023-01-09T23:31:26.231Z,6.82
2023-01-09T23:33:57.449Z,7.88
2023-01-09T23:36:32.660Z,2.10
2023-01-09T23:39:00.669Z,3.13
2023-01-09T23:41:52.990Z,1.90
2023-01-09T23:44:20.561Z,4.03
2023-01-09T23:46:51.257Z,5.85
2023-01-09T23:49:21.517Z,3.70
2023-01-09T23:51:52.361Z,2.13
2023-01-09T23:54:26.330Z,10.40
2023-01-09T23:56:56.693Z,3.75
2023-01-09T23:59:24.468Z,27.30
